sensor_id;sensor_type;location;lat;lon;timestamp;temperature;humidity
48264;DHT22;34086;51.076;13.722;2023-03-23T00:00:29;12.40;99.90
48264;DHT22;34086;51.076;13.722;2023-03-23T00:01:30;12.40;99.90
48264;DHT22;34086;51.076;13.722;2023-03-23T00:02:31;12.40;99.90
48264;DHT22;34086;51.076;13.722;2023-03-23T00:03:36;12.40;99.90
48264;DHT22;34086;51.076;13.722;2023-03-23T00:04:37;12.40;99.90
48264;DHT22;34086;51.076;13.722;2023-03-23T00:05:38;12.40;99.90
48264;DHT22;34086;51.076;13.722;2023-03-23T00:06:41;12.40;99.90
48264;DHT22;34086;51.076;13.722;2023-03-23T00:07:42;12.40;99.90
48264;DHT22;34086;51.076;13.722;2023-03-23T00:08:47;12.40;99.90
48264;DHT22;34086;51.076;13.722;2023-03-23T00:09:49;12.40;99.90
48264;DHT22;34086;51.076;13.722;2023-03-23T00:10:54;12.40;99.90
48264;DHT22;34086;51.076;13.722;2023-03-23T00:11:57;12.40;99.90
48264;DHT22;34086;51.076;13.722;2023-03-23T00:13:05;12.40;99.90
48264;DHT22;34086;51.076;13.722;2023-03-23T00:14:06;12.40;99.90
48264;DHT22;34086;51.076;13.722;2023-03-23T00:15:13;12.40;99.90
48264;DHT22;34086;51.076;13.722;2023-03-23T00:16:21;12.40;99.90
48264;DHT22;34086;51.076;13.722;2023-03-23T00:17:29;12.40;99.90
48264;DHT22;34086;51.076;13.722;2023-03-23T00:18:30;12.40;99.90
48264;DHT22;34086;51.076;13.722;2023-03-23T00:19:31;12.40;99.90
48264;DHT22;34086;51.076;13.722;2023-03-23T00:20:32;12.40;99.90
48264;DHT22;34086;51.076;13.722;2023-03-23T00:21:42;12.40;99.90
48264;DHT22;34086;51.076;13.722;2023-03-23T00:22:43;12.40;99.90
48264;DHT22;34086;51.076;13.722;2023-03-23T00:23:43;12.40;99.90
48264;DHT22;34086;51.076;13.722;2023-03-23T00:24:45;12.40;99.90
48264;DHT22;34086;51.076;13.722;2023-03-23T00:25:48;12.40;99.90
48264;DHT22;34086;51.076;13.722;2023-03-23T00:26:49;12.40;99.90
48264;DHT22;34086;51.076;13.722;2023-03-23T00:27:51;12.40;99.90
48264;DHT22;34086;51.076;13.722;2023-03-23T00:28:52;12.40;99.90
48264;DHT22;34086;51.076;13.722;2023-03-23T00:29:52;12.40;99.90
48264;DHT22;34086;51.076;13.722;2023-03-23T00:31:02;12.40;99.90
48264;DHT22;34086;51.076;13.722;2023-03-23T00:32:02;12.40;99.90
48264;DHT22;34086;51.076;13.722;2023-03-23T00:33:06;12.40;99.90
48264;DHT22;34086;51.076;13.722;2023-03-23T00:34:07;12.50;99.90
48264;DHT22;34086;51.076;13.722;2023-03-23T00:35:07;12.50;99.90
48264;DHT22;34086;51.076;13.722;2023-03-23T00:36:13;12.50;99.90
48264;DHT22;34086;51.076;13.722;2023-03-23T00:37:14;12.60;99.90
48264;DHT22;34086;51.076;13.722;2023-03-23T00:38:16;12.50;99.90
48264;DHT22;34086;51.076;13.722;2023-03-23T00:39:17;12.60;99.90
48264;DHT22;34086;51.076;13.722;2023-03-23T00:40:17;12.70;99.90
48264;DHT22;34086;51.076;13.722;2023-03-23T00:41:18;12.80;99.90
48264;DHT22;34086;51.076;13.722;2023-03-23T00:42:19;12.80;99.90
48264;DHT22;34086;51.076;13.722;2023-03-23T00:43:22;12.90;99.90
48264;DHT22;34086;51.076;13.722;2023-03-23T00:44:25;13.00;99.90
48264;DHT22;34086;51.076;13.722;2023-03-23T00:45:25;13.10;99.90
48264;DHT22;34086;51.076;13.722;2023-03-23T00:46:27;13.20;99.90
48264;DHT22;34086;51.076;13.722;2023-03-23T00:47:28;13.20;99.90
48264;DHT22;34086;51.076;13.722;2023-03-23T00:48:29;13.30;99.90
48264;DHT22;34086;51.076;13.722;2023-03-23T00:49:29;13.30;99.90
48264;DHT22;34086;51.076;13.722;2023-03-23T00:50:31;13.40;99.90
48264;DHT22;34086;51.076;13.722;2023-03-23T00:51:31;13.50;99.90
48264;DHT22;34086;51.076;13.722;2023-03-23T00:52:32;13.50;99.90
48264;DHT22;34086;51.076;13.722;2023-03-23T00:53:33;13.60;99.90
48264;DHT22;34086;51.076;13.722;2023-03-23T00:54:33;13.60;99.90
48264;DHT22;34086;51.076;13.722;2023-03-23T00:55:35;13.60;99.90
48264;DHT22;34086;51.076;13.722;2023-03-23T00:56:36;13.60;99.90
48264;DHT22;34086;51.076;13.722;2023-03-23T00:57:36;13.60;99.90
48264;DHT22;34086;51.076;13.722;2023-03-23T00:58:37;13.70;99.90
48264;DHT22;34086;51.076;13.722;2023-03-23T00:59:38;13.60;99.90
48264;DHT22;34086;51.076;13.722;2023-03-23T01:00:39;13.70;99.90
48264;DHT22;34086;51.076;13.722;2023-03-23T01:01:40;13.70;99.90
48264;DHT22;34086;51.076;13.722;2023-03-23T01:02:41;13.70;99.90
48264;DHT22;34086;51.076;13.722;2023-03-23T01:03:44;13.70;99.90
48264;DHT22;34086;51.076;13.722;2023-03-23T01:04:46;13.70;99.90
48264;DHT22;34086;51.076;13.722;2023-03-23T01:05:47;13.70;99.90
48264;DHT22;34086;51.076;13.722;2023-03-23T01:06:50;13.70;99.90
48264;DHT22;34086;51.076;13.722;2023-03-23T01:07:51;13.70;99.90
48264;DHT22;34086;51.076;13.722;2023-03-23T01:08:51;13.60;99.90
48264;DHT22;34086;51.076;13.722;2023-03-23T01:09:54;13.60;99.90
48264;DHT22;34086;51.076;13.722;2023-03-23T01:11:02;13.60;99.90
48264;DHT22;34086;51.076;13.722;2023-03-23T01:12:03;13.50;99.90
48264;DHT22;34086;51.076;13.722;2023-03-23T01:13:07;13.50;99.90
48264;DHT22;34086;51.076;13.722;2023-03-23T01:14:08;13.50;99.90
48264;DHT22;34086;51.076;13.722;2023-03-23T01:15:15;13.50;99.90
48264;DHT22;34086;51.076;13.722;2023-03-23T01:16:17;13.50;99.90
48264;DHT22;34086;51.076;13.722;2023-03-23T01:17:17;13.60;99.90
48264;DHT22;34086;51.076;13.722;2023-03-23T01:18:19;13.60;99.90
48264;DHT22;34086;51.076;13.722;2023-03-23T01:19:19;13.60;99.90
48264;DHT22;34086;51.076;13.722;2023-03-23T01:20:20;13.60;99.90
48264;DHT22;34086;51.076;13.722;2023-03-23T01:21:21;13.60;99.90
48264;DHT22;34086;51.076;13.722;2023-03-23T01:22:22;13.60;99.90
48264;DHT22;34086;51.076;13.722;2023-03-23T01:23:22;13.60;99.90
48264;DHT22;34086;51.076;13.722;2023-03-23T01:24:23;13.60;99.90
48264;DHT22;34086;51.076;13.722;2023-03-23T01:25:23;13.60;99.90
48264;DHT22;34086;51.076;13.722;2023-03-23T01:26:27;13.60;99.90
48264;DHT22;34086;51.076;13.722;2023-03-23T01:27:28;13.60;99.90
48264;DHT22;34086;51.076;13.722;2023-03-23T01:28:29;13.50;99.90
48264;DHT22;34086;51.076;13.722;2023-03-23T01:29:29;13.50;99.90
48264;DHT22;34086;51.076;13.722;2023-03-23T01:30:30;13.50;99.90
48264;DHT22;34086;51.076;13.722;2023-03-23T01:31:31;13.60;99.90
48264;DHT22;34086;51.076;13.722;2023-03-23T01:32:32;13.60;99.90
48264;DHT22;34086;51.076;13.722;2023-03-23T01:33:33;13.50;99.90
48264;DHT22;34086;51.076;13.722;2023-03-23T01:34:34;13.50;99.90
48264;DHT22;34086;51.076;13.722;2023-03-23T01:35:37;13.50;99.90
48264;DHT22;34086;51.076;13.722;2023-03-23T01:36:38;13.50;99.90
48264;DHT22;34086;51.076;13.722;2023-03-23T01:37:39;13.40;99.90
48264;DHT22;34086;51.076;13.722;2023-03-23T01:38:40;13.40;99.90
48264;DHT22;34086;51.076;13.722;2023-03-23T01:39:41;13.40;99.90
48264;DHT22;34086;51.076;13.722;2023-03-23T01:40:43;13.40;99.90
48264;DHT22;34086;51.076;13.722;2023-03-23T01:41:44;13.40;99.90
48264;DHT22;34086;51.076;13.722;2023-03-23T01:42:47;13.40;99.90
48264;DHT22;34086;51.076;13.722;2023-03-23T01:44:05;13.30;99.90
48264;DHT22;34086;51.076;13.722;2023-03-23T01:45:24;13.30;99.90
48264;DHT22;34086;51.076;13.722;2023-03-23T01:46:28;13.20;99.90
48264;DHT22;34086;51.076;13.722;2023-03-23T01:47:29;13.20;99.90
48264;DHT22;34086;51.076;13.722;2023-03-23T01:48:35;13.20;99.90
48264;DHT22;34086;51.076;13.722;2023-03-23T01:49:42;13.10;99.90
48264;DHT22;34086;51.076;13.722;2023-03-23T01:50:50;13.10;99.90
48264;DHT22;34086;51.076;13.722;2023-03-23T01:51:55;13.10;99.90
48264;DHT22;34086;51.076;13.722;2023-03-23T01:52:58;13.10;99.90
48264;DHT22;34086;51.076;13.722;2023-03-23T01:54:02;13.00;99.90
48264;DHT22;34086;51.076;13.722;2023-03-23T01:55:04;13.00;99.90
48264;DHT22;34086;51.076;13.722;2023-03-23T01:56:06;13.00;99.90
48264;DHT22;34086;51.076;13.722;2023-03-23T01:57:16;13.00;99.90
48264;DHT22;34086;51.076;13.722;2023-03-23T01:58:21;12.90;99.90
48264;DHT22;34086;51.076;13.722;2023-03-23T01:59:26;12.90;99.90
48264;DHT22;34086;51.076;13.722;2023-03-23T02:00:47;12.90;99.90
48264;DHT22;34086;51.076;13.722;2023-03-23T02:01:48;12.90;99.90
48264;DHT22;34086;51.076;13.722;2023-03-23T02:02:54;12.90;99.90
48264;DHT22;34086;51.076;13.722;2023-03-23T02:03:56;12.80;99.90
48264;DHT22;34086;51.076;13.722;2023-03-23T02:05:02;12.80;99.90
48264;DHT22;34086;51.076;13.722;2023-03-23T02:06:07;12.80;99.90
48264;DHT22;34086;51.076;13.722;2023-03-23T02:07:15;12.80;99.90
48264;DHT22;34086;51.076;13.722;2023-03-23T02:08:18;12.80;99.90
48264;DHT22;34086;51.076;13.722;2023-03-23T02:09:20;12.80;99.90
48264;DHT22;34086;51.076;13.722;2023-03-23T02:10:23;12.70;99.90
48264;DHT22;34086;51.076;13.722;2023-03-23T02:11:23;12.70;99.90
48264;DHT22;34086;51.076;13.722;2023-03-23T02:12:24;12.70;99.90
48264;DHT22;34086;51.076;13.722;2023-03-23T02:13:27;12.70;99.90
48264;DHT22;34086;51.076;13.722;2023-03-23T02:14:28;12.70;99.90
48264;DHT22;34086;51.076;13.722;2023-03-23T02:15:43;12.60;99.90
48264;DHT22;34086;51.076;13.722;2023-03-23T02:17:03;12.70;99.90
48264;DHT22;34086;51.076;13.722;2023-03-23T02:18:23;12.70;99.90
48264;DHT22;34086;51.076;13.722;2023-03-23T02:20:11;12.70;99.90
48264;DHT22;34086;51.076;13.722;2023-03-23T02:21:45;12.60;99.90
48264;DHT22;34086;51.076;13.722;2023-03-23T02:30:56;12.60;99.90
48264;DHT22;34086;51.076;13.722;2023-03-23T02:35:20;12.60;99.90
48264;DHT22;34086;51.076;13.722;2023-03-23T02:36:37;12.60;99.90
48264;DHT22;34086;51.076;13.722;2023-03-23T02:37:47;12.60;99.90
48264;DHT22;34086;51.076;13.722;2023-03-23T02:40:47;12.60;99.90
48264;DHT22;34086;51.076;13.722;2023-03-23T02:41:27;12.60;99.90
48264;DHT22;34086;51.076;13.722;2023-03-23T02:42:30;12.50;99.90
48264;DHT22;34086;51.076;13.722;2023-03-23T02:43:40;12.50;99.90
48264;DHT22;34086;51.076;13.722;2023-03-23T02:44:45;12.60;99.90
48264;DHT22;34086;51.076;13.722;2023-03-23T02:45:46;12.60;99.90
48264;DHT22;34086;51.076;13.722;2023-03-23T02:46:48;12.50;99.90
48264;DHT22;34086;51.076;13.722;2023-03-23T02:47:52;12.60;99.90
48264;DHT22;34086;51.076;13.722;2023-03-23T02:48:54;12.60;99.90
48264;DHT22;34086;51.076;13.722;2023-03-23T02:49:57;12.50;99.90
48264;DHT22;34086;51.076;13.722;2023-03-23T02:51:00;12.50;99.90
48264;DHT22;34086;51.076;13.722;2023-03-23T02:52:09;12.50;99.90
48264;DHT22;34086;51.076;13.722;2023-03-23T02:53:16;12.50;99.90
48264;DHT22;34086;51.076;13.722;2023-03-23T02:54:18;12.50;99.90
48264;DHT22;34086;51.076;13.722;2023-03-23T02:55:21;12.50;99.90
48264;DHT22;34086;51.076;13.722;2023-03-23T02:56:25;12.50;99.90
48264;DHT22;34086;51.076;13.722;2023-03-23T02:57:27;12.50;99.90
48264;DHT22;34086;51.076;13.722;2023-03-23T02:58:29;12.50;99.90
48264;DHT22;34086;51.076;13.722;2023-03-23T02:59:31;12.40;99.90
48264;DHT22;34086;51.076;13.722;2023-03-23T03:00:32;12.40;99.90
48264;DHT22;34086;51.076;13.722;2023-03-23T03:02:44;12.40;99.90
48264;DHT22;34086;51.076;13.722;2023-03-23T03:03:47;12.40;99.90
48264;DHT22;34086;51.076;13.722;2023-03-23T03:06:14;12.40;99.90
48264;DHT22;34086;51.076;13.722;2023-03-23T03:07:39;12.40;99.90
48264;DHT22;34086;51.076;13.722;2023-03-23T03:08:59;12.40;99.90
48264;DHT22;34086;51.076;13.722;2023-03-23T03:10:10;12.40;99.90
48264;DHT22;34086;51.076;13.722;2023-03-23T03:11:16;12.30;99.90
48264;DHT22;34086;51.076;13.722;2023-03-23T03:13:53;12.40;99.90
48264;DHT22;34086;51.076;13.722;2023-03-23T03:16:40;12.40;99.90
48264;DHT22;34086;51.076;13.722;2023-03-23T03:17:47;12.40;99.90
48264;DHT22;34086;51.076;13.722;2023-03-23T03:19:10;12.40;99.90
48264;DHT22;34086;51.076;13.722;2023-03-23T03:20:15;12.40;99.90
48264;DHT22;34086;51.076;13.722;2023-03-23T03:21:17;12.40;99.90
48264;DHT22;34086;51.076;13.722;2023-03-23T03:22:21;12.40;99.90
48264;DHT22;34086;51.076;13.722;2023-03-23T03:23:24;12.40;99.90
48264;DHT22;34086;51.076;13.722;2023-03-23T03:24:29;12.50;99.90
48264;DHT22;34086;51.076;13.722;2023-03-23T03:25:31;12.40;99.90
48264;DHT22;34086;51.076;13.722;2023-03-23T03:26:33;12.50;99.90
48264;DHT22;34086;51.076;13.722;2023-03-23T03:27:52;12.50;99.90
48264;DHT22;34086;51.076;13.722;2023-03-23T03:29:06;12.50;99.90
48264;DHT22;34086;51.076;13.722;2023-03-23T03:30:14;12.50;99.90
48264;DHT22;34086;51.076;13.722;2023-03-23T03:31:21;12.50;99.90
48264;DHT22;34086;51.076;13.722;2023-03-23T03:32:29;12.60;99.90
48264;DHT22;34086;51.076;13.722;2023-03-23T03:33:32;12.60;99.90
48264;DHT22;34086;51.076;13.722;2023-03-23T03:34:34;12.60;99.90
48264;DHT22;34086;51.076;13.722;2023-03-23T03:35:37;12.60;99.90
48264;DHT22;34086;51.076;13.722;2023-03-23T03:36:40;12.60;99.90
48264;DHT22;34086;51.076;13.722;2023-03-23T03:37:43;12.60;99.90
48264;DHT22;34086;51.076;13.722;2023-03-23T03:38:48;12.60;99.90
48264;DHT22;34086;51.076;13.722;2023-03-23T03:39:49;12.60;99.90
48264;DHT22;34086;51.076;13.722;2023-03-23T03:40:51;12.70;99.90
48264;DHT22;34086;51.076;13.722;2023-03-23T03:41:53;12.70;99.90
48264;DHT22;34086;51.076;13.722;2023-03-23T03:42:54;12.70;99.90
48264;DHT22;34086;51.076;13.722;2023-03-23T03:43:55;12.70;99.90
48264;DHT22;34086;51.076;13.722;2023-03-23T03:44:56;12.70;99.90
48264;DHT22;34086;51.076;13.722;2023-03-23T03:45:57;12.80;99.90
48264;DHT22;34086;51.076;13.722;2023-03-23T03:46:57;12.80;99.90
48264;DHT22;34086;51.076;13.722;2023-03-23T03:47:58;12.80;99.90
48264;DHT22;34086;51.076;13.722;2023-03-23T03:48:59;12.80;99.90
48264;DHT22;34086;51.076;13.722;2023-03-23T03:50:00;12.80;99.90
48264;DHT22;34086;51.076;13.722;2023-03-23T03:51:01;12.80;99.90
48264;DHT22;34086;51.076;13.722;2023-03-23T03:52:05;12.80;99.90
48264;DHT22;34086;51.076;13.722;2023-03-23T03:53:13;12.80;99.90
48264;DHT22;34086;51.076;13.722;2023-03-23T03:54:14;12.90;99.90
48264;DHT22;34086;51.076;13.722;2023-03-23T03:55:16;12.90;99.90
48264;DHT22;34086;51.076;13.722;2023-03-23T03:56:19;12.90;99.90
48264;DHT22;34086;51.076;13.722;2023-03-23T03:57:31;12.90;99.90
48264;DHT22;34086;51.076;13.722;2023-03-23T03:58:50;12.90;99.90
48264;DHT22;34086;51.076;13.722;2023-03-23T04:00:10;12.90;99.90
48264;DHT22;34086;51.076;13.722;2023-03-23T04:01:16;13.00;99.90
48264;DHT22;34086;51.076;13.722;2023-03-23T04:02:17;13.00;99.90
48264;DHT22;34086;51.076;13.722;2023-03-23T04:03:20;13.00;99.90
48264;DHT22;34086;51.076;13.722;2023-03-23T04:04:34;13.00;99.90
48264;DHT22;34086;51.076;13.722;2023-03-23T04:05:35;13.00;99.90
48264;DHT22;34086;51.076;13.722;2023-03-23T04:06:37;13.00;99.90
48264;DHT22;34086;51.076;13.722;2023-03-23T04:07:38;13.00;99.90
48264;DHT22;34086;51.076;13.722;2023-03-23T04:08:40;13.00;99.90
48264;DHT22;34086;51.076;13.722;2023-03-23T04:09:43;13.00;99.90
48264;DHT22;34086;51.076;13.722;2023-03-23T04:10:47;13.00;99.90
48264;DHT22;34086;51.076;13.722;2023-03-23T04:11:48;13.00;99.90
48264;DHT22;34086;51.076;13.722;2023-03-23T04:13:11;13.00;99.90
48264;DHT22;34086;51.076;13.722;2023-03-23T04:14:35;13.00;99.90
48264;DHT22;34086;51.076;13.722;2023-03-23T04:15:36;13.00;99.90
48264;DHT22;34086;51.076;13.722;2023-03-23T04:16:36;13.00;99.90
48264;DHT22;34086;51.076;13.722;2023-03-23T04:17:37;13.00;99.90
48264;DHT22;34086;51.076;13.722;2023-03-23T04:18:38;13.00;99.90
48264;DHT22;34086;51.076;13.722;2023-03-23T04:19:39;13.00;99.90
48264;DHT22;34086;51.076;13.722;2023-03-23T04:20:42;13.00;99.90
48264;DHT22;34086;51.076;13.722;2023-03-23T04:21:43;13.00;99.90
48264;DHT22;34086;51.076;13.722;2023-03-23T04:22:44;13.00;99.90
48264;DHT22;34086;51.076;13.722;2023-03-23T04:23:45;13.00;99.90
48264;DHT22;34086;51.076;13.722;2023-03-23T04:24:46;13.00;99.90
48264;DHT22;34086;51.076;13.722;2023-03-23T04:25:52;13.00;99.90
48264;DHT22;34086;51.076;13.722;2023-03-23T04:26:56;13.00;99.90
48264;DHT22;34086;51.076;13.722;2023-03-23T04:28:01;13.00;99.90
48264;DHT22;34086;51.076;13.722;2023-03-23T04:29:07;13.00;99.90
48264;DHT22;34086;51.076;13.722;2023-03-23T04:30:09;13.00;99.90
48264;DHT22;34086;51.076;13.722;2023-03-23T04:31:33;12.90;99.90
48264;DHT22;34086;51.076;13.722;2023-03-23T04:32:43;13.00;99.90
48264;DHT22;34086;51.076;13.722;2023-03-23T04:33:48;12.90;99.90
48264;DHT22;34086;51.076;13.722;2023-03-23T04:34:49;13.00;99.90
48264;DHT22;34086;51.076;13.722;2023-03-23T04:35:54;12.90;99.90
48264;DHT22;34086;51.076;13.722;2023-03-23T04:37:18;13.00;99.90
48264;DHT22;34086;51.076;13.722;2023-03-23T04:38:20;13.00;99.90
48264;DHT22;34086;51.076;13.722;2023-03-23T04:39:26;13.00;99.90
48264;DHT22;34086;51.076;13.722;2023-03-23T04:40:29;12.90;99.90
48264;DHT22;34086;51.076;13.722;2023-03-23T04:41:43;12.90;99.90
48264;DHT22;34086;51.076;13.722;2023-03-23T04:43:02;12.90;99.90
48264;DHT22;34086;51.076;13.722;2023-03-23T04:44:28;12.90;99.90
48264;DHT22;34086;51.076;13.722;2023-03-23T04:45:37;12.90;99.90
48264;DHT22;34086;51.076;13.722;2023-03-23T04:46:41;12.90;99.90
48264;DHT22;34086;51.076;13.722;2023-03-23T04:47:46;12.90;99.90
48264;DHT22;34086;51.076;13.722;2023-03-23T04:48:55;12.80;99.90
48264;DHT22;34086;51.076;13.722;2023-03-23T04:50:03;12.90;99.90
48264;DHT22;34086;51.076;13.722;2023-03-23T04:51:10;12.90;99.90
48264;DHT22;34086;51.076;13.722;2023-03-23T04:52:12;12.80;99.90
48264;DHT22;34086;51.076;13.722;2023-03-23T04:53:19;12.80;99.90
48264;DHT22;34086;51.076;13.722;2023-03-23T04:54:19;12.80;99.90
48264;DHT22;34086;51.076;13.722;2023-03-23T04:55:25;12.80;99.90
48264;DHT22;34086;51.076;13.722;2023-03-23T04:56:30;12.80;99.90
48264;DHT22;34086;51.076;13.722;2023-03-23T04:57:36;12.80;99.90
48264;DHT22;34086;51.076;13.722;2023-03-23T04:58:56;12.80;99.90
48264;DHT22;34086;51.076;13.722;2023-03-23T05:00:05;12.90;99.90
48264;DHT22;34086;51.076;13.722;2023-03-23T05:01:14;12.90;99.90
48264;DHT22;34086;51.076;13.722;2023-03-23T05:02:24;12.90;99.90
48264;DHT22;34086;51.076;13.722;2023-03-23T05:03:26;12.80;99.90
48264;DHT22;34086;51.076;13.722;2023-03-23T05:04:29;12.80;99.90
48264;DHT22;34086;51.076;13.722;2023-03-23T05:05:36;12.80;99.90
48264;DHT22;34086;51.076;13.722;2023-03-23T05:06:41;12.80;99.90
48264;DHT22;34086;51.076;13.722;2023-03-23T05:07:50;12.80;99.90
48264;DHT22;34086;51.076;13.722;2023-03-23T05:08:53;12.80;99.90
48264;DHT22;34086;51.076;13.722;2023-03-23T05:09:56;12.80;99.90
48264;DHT22;34086;51.076;13.722;2023-03-23T05:11:01;12.80;99.90
48264;DHT22;34086;51.076;13.722;2023-03-23T05:12:08;12.80;99.90
48264;DHT22;34086;51.076;13.722;2023-03-23T05:13:17;12.80;99.90
48264;DHT22;34086;51.076;13.722;2023-03-23T05:14:21;12.80;99.90
48264;DHT22;34086;51.076;13.722;2023-03-23T05:15:33;12.80;99.90
48264;DHT22;34086;51.076;13.722;2023-03-23T05:16:35;12.80;99.90
48264;DHT22;34086;51.076;13.722;2023-03-23T05:17:38;12.80;99.90
48264;DHT22;34086;51.076;13.722;2023-03-23T05:18:46;12.80;99.90
48264;DHT22;34086;51.076;13.722;2023-03-23T05:19:51;12.80;99.90
48264;DHT22;34086;51.076;13.722;2023-03-23T05:21:07;12.80;99.90
48264;DHT22;34086;51.076;13.722;2023-03-23T05:22:13;12.70;99.90
48264;DHT22;34086;51.076;13.722;2023-03-23T05:23:20;12.80;99.90
48264;DHT22;34086;51.076;13.722;2023-03-23T05:24:31;12.70;99.90
48264;DHT22;34086;51.076;13.722;2023-03-23T05:25:36;12.80;99.90
48264;DHT22;34086;51.076;13.722;2023-03-23T05:26:44;12.80;99.90
48264;DHT22;34086;51.076;13.722;2023-03-23T05:27:52;12.80;99.90
48264;DHT22;34086;51.076;13.722;2023-03-23T05:29:06;12.80;99.90
48264;DHT22;34086;51.076;13.722;2023-03-23T05:30:16;12.80;99.90
48264;DHT22;34086;51.076;13.722;2023-03-23T05:31:19;12.80;99.90
48264;DHT22;34086;51.076;13.722;2023-03-23T05:32:19;12.80;99.90
48264;DHT22;34086;51.076;13.722;2023-03-23T05:33:21;12.80;99.90
48264;DHT22;34086;51.076;13.722;2023-03-23T05:34:51;12.80;99.90
48264;DHT22;34086;51.076;13.722;2023-03-23T05:35:51;12.80;99.90
48264;DHT22;34086;51.076;13.722;2023-03-23T05:37:02;12.90;99.90
48264;DHT22;34086;51.076;13.722;2023-03-23T05:38:22;12.90;99.90
48264;DHT22;34086;51.076;13.722;2023-03-23T05:39:25;12.90;99.90
48264;DHT22;34086;51.076;13.722;2023-03-23T05:40:47;12.80;99.90
48264;DHT22;34086;51.076;13.722;2023-03-23T05:41:50;12.90;99.90
48264;DHT22;34086;51.076;13.722;2023-03-23T05:42:51;12.90;99.90
48264;DHT22;34086;51.076;13.722;2023-03-23T05:43:59;12.90;99.90
48264;DHT22;34086;51.076;13.722;2023-03-23T05:45:09;12.90;99.90
48264;DHT22;34086;51.076;13.722;2023-03-23T05:46:11;12.90;99.90
48264;DHT22;34086;51.076;13.722;2023-03-23T05:47:13;12.90;99.90
48264;DHT22;34086;51.076;13.722;2023-03-23T05:48:19;13.00;99.90
48264;DHT22;34086;51.076;13.722;2023-03-23T05:49:21;13.00;99.90
48264;DHT22;34086;51.076;13.722;2023-03-23T05:50:22;13.00;99.90
48264;DHT22;34086;51.076;13.722;2023-03-23T05:51:23;13.00;99.90
48264;DHT22;34086;51.076;13.722;2023-03-23T05:52:24;13.00;99.90
48264;DHT22;34086;51.076;13.722;2023-03-23T05:53:26;13.00;99.90
48264;DHT22;34086;51.076;13.722;2023-03-23T05:54:27;13.00;99.90
48264;DHT22;34086;51.076;13.722;2023-03-23T05:55:28;13.00;99.90
48264;DHT22;34086;51.076;13.722;2023-03-23T05:56:38;13.00;99.90
48264;DHT22;34086;51.076;13.722;2023-03-23T05:57:45;13.10;99.90
48264;DHT22;34086;51.076;13.722;2023-03-23T05:58:58;13.10;99.90
48264;DHT22;34086;51.076;13.722;2023-03-23T05:59:59;13.10;99.90
48264;DHT22;34086;51.076;13.722;2023-03-23T06:01:00;13.10;99.90
48264;DHT22;34086;51.076;13.722;2023-03-23T06:02:04;13.10;99.90
48264;DHT22;34086;51.076;13.722;2023-03-23T06:03:05;13.10;99.90
48264;DHT22;34086;51.076;13.722;2023-03-23T06:04:17;13.10;99.90
48264;DHT22;34086;51.076;13.722;2023-03-23T06:05:27;13.10;99.90
48264;DHT22;34086;51.076;13.722;2023-03-23T06:06:30;13.10;99.90
48264;DHT22;34086;51.076;13.722;2023-03-23T06:07:43;13.10;99.90
48264;DHT22;34086;51.076;13.722;2023-03-23T06:08:44;13.10;99.90
48264;DHT22;34086;51.076;13.722;2023-03-23T06:09:45;13.10;99.90
48264;DHT22;34086;51.076;13.722;2023-03-23T06:10:57;13.10;99.90
48264;DHT22;34086;51.076;13.722;2023-03-23T06:11:58;13.10;99.90
48264;DHT22;34086;51.076;13.722;2023-03-23T06:13:21;13.20;99.90
48264;DHT22;34086;51.076;13.722;2023-03-23T06:14:24;13.20;99.90
48264;DHT22;34086;51.076;13.722;2023-03-23T06:15:25;13.20;99.90
48264;DHT22;34086;51.076;13.722;2023-03-23T06:16:53;13.20;99.90
48264;DHT22;34086;51.076;13.722;2023-03-23T06:17:54;13.20;99.90
48264;DHT22;34086;51.076;13.722;2023-03-23T06:19:00;13.20;99.90
48264;DHT22;34086;51.076;13.722;2023-03-23T06:20:07;13.30;99.90
48264;DHT22;34086;51.076;13.722;2023-03-23T06:21:11;13.30;99.90
48264;DHT22;34086;51.076;13.722;2023-03-23T06:22:24;13.30;99.90
48264;DHT22;34086;51.076;13.722;2023-03-23T06:23:41;13.40;99.90
48264;DHT22;34086;51.076;13.722;2023-03-23T06:24:43;13.40;99.90
48264;DHT22;34086;51.076;13.722;2023-03-23T06:25:44;13.50;99.90
48264;DHT22;34086;51.076;13.722;2023-03-23T06:26:46;13.50;99.90
48264;DHT22;34086;51.076;13.722;2023-03-23T06:27:51;13.50;99.90
48264;DHT22;34086;51.076;13.722;2023-03-23T06:28:52;13.50;99.90
48264;DHT22;34086;51.076;13.722;2023-03-23T06:29:54;13.60;99.90
48264;DHT22;34086;51.076;13.722;2023-03-23T06:30:59;13.60;99.90
48264;DHT22;34086;51.076;13.722;2023-03-23T06:32:01;13.60;99.90
48264;DHT22;34086;51.076;13.722;2023-03-23T06:33:03;13.60;99.90
48264;DHT22;34086;51.076;13.722;2023-03-23T06:34:26;13.70;99.90
48264;DHT22;34086;51.076;13.722;2023-03-23T06:35:56;13.70;99.90
48264;DHT22;34086;51.076;13.722;2023-03-23T06:37:14;13.70;99.90
48264;DHT22;34086;51.076;13.722;2023-03-23T06:38:26;13.90;99.90
48264;DHT22;34086;51.076;13.722;2023-03-23T06:39:29;13.90;99.90
48264;DHT22;34086;51.076;13.722;2023-03-23T06:40:39;14.00;99.90
48264;DHT22;34086;51.076;13.722;2023-03-23T06:41:40;14.20;99.90
48264;DHT22;34086;51.076;13.722;2023-03-23T06:42:41;14.30;99.90
48264;DHT22;34086;51.076;13.722;2023-03-23T06:44:07;14.20;99.90
48264;DHT22;34086;51.076;13.722;2023-03-23T06:45:09;14.30;99.90
48264;DHT22;34086;51.076;13.722;2023-03-23T06:46:15;14.40;99.90
48264;DHT22;34086;51.076;13.722;2023-03-23T06:47:16;14.40;99.90
48264;DHT22;34086;51.076;13.722;2023-03-23T06:48:21;14.40;99.90
48264;DHT22;34086;51.076;13.722;2023-03-23T06:49:23;14.50;99.90
48264;DHT22;34086;51.076;13.722;2023-03-23T06:50:29;14.50;99.90
48264;DHT22;34086;51.076;13.722;2023-03-23T06:51:30;14.50;99.90
48264;DHT22;34086;51.076;13.722;2023-03-23T06:52:31;14.50;99.90
48264;DHT22;34086;51.076;13.722;2023-03-23T06:53:33;14.50;99.90
48264;DHT22;34086;51.076;13.722;2023-03-23T06:54:35;14.50;99.90
48264;DHT22;34086;51.076;13.722;2023-03-23T06:55:38;14.50;99.90
48264;DHT22;34086;51.076;13.722;2023-03-23T06:56:38;14.50;99.90
48264;DHT22;34086;51.076;13.722;2023-03-23T06:57:41;14.50;99.90
48264;DHT22;34086;51.076;13.722;2023-03-23T06:58:43;14.50;99.90
48264;DHT22;34086;51.076;13.722;2023-03-23T06:59:45;14.60;99.90
48264;DHT22;34086;51.076;13.722;2023-03-23T07:00:46;14.60;99.90
48264;DHT22;34086;51.076;13.722;2023-03-23T07:01:49;14.60;99.90
48264;DHT22;34086;51.076;13.722;2023-03-23T07:02:50;14.60;99.90
48264;DHT22;34086;51.076;13.722;2023-03-23T07:03:51;14.60;99.90